sensor_id;sensor_type;location;lat;lon;timestamp;P1;durP1;ratioP1;P2;durP2;ratioP2
74904;SDS011;63465;50.862;6.220;2024-03-08T00:01:13;28.87;;;16.20;;
74904;SDS011;63465;50.862;6.220;2024-03-08T00:03:38;28.77;;;16.40;;
74904;SDS011;63465;50.862;6.220;2024-03-08T00:06:05;23.17;;;15.53;;
74904;SDS011;63465;50.862;6.220;2024-03-08T00:08:31;26.63;;;15.17;;
74904;SDS011;63465;50.862;6.220;2024-03-08T00:10:56;29.57;;;15.70;;
74904;SDS011;63465;50.862;6.220;2024-03-08T00:13:21;30.57;;;15.20;;
74904;SDS011;63465;50.862;6.220;2024-03-08T00:15:47;25.17;;;15.53;;
74904;SDS011;63465;50.862;6.220;2024-03-08T00:18:12;27.90;;;15.50;;
74904;SDS011;63465;50.862;6.220;2024-03-08T00:20:37;23.40;;;15.37;;
74904;SDS011;63465;50.862;6.220;2024-03-08T00:23:03;26.57;;;16.13;;
74904;SDS011;63465;50.862;6.220;2024-03-08T00:25:28;25.47;;;15.80;;
74904;SDS011;63465;50.862;6.220;2024-03-08T00:27:54;21.60;;;14.00;;
74904;SDS011;63465;50.862;6.220;2024-03-08T00:30:22;22.47;;;14.80;;
74904;SDS011;63465;50.862;6.220;2024-03-08T00:32:48;24.53;;;15.47;;
74904;SDS011;63465;50.862;6.220;2024-03-08T00:35:14;24.10;;;15.20;;
74904;SDS011;63465;50.862;6.220;2024-03-08T00:37:39;25.00;;;15.17;;
74904;SDS011;63465;50.862;6.220;2024-03-08T00:40:06;23.77;;;15.10;;
74904;SDS011;63465;50.862;6.220;2024-03-08T00:42:34;24.90;;;15.50;;
74904;SDS011;63465;50.862;6.220;2024-03-08T00:44:59;30.00;;;15.27;;
74904;SDS011;63465;50.862;6.220;2024-03-08T00:47:25;29.23;;;16.50;;
74904;SDS011;63465;50.862;6.220;2024-03-08T00:49:50;29.67;;;15.50;;
74904;SDS011;63465;50.862;6.220;2024-03-08T00:52:16;23.37;;;14.93;;
74904;SDS011;63465;50.862;6.220;2024-03-08T00:54:43;26.47;;;16.37;;
74904;SDS011;63465;50.862;6.220;2024-03-08T00:57:08;30.37;;;18.00;;
74904;SDS011;63465;50.862;6.220;2024-03-08T00:59:34;24.70;;;15.40;;
74904;SDS011;63465;50.862;6.220;2024-03-08T01:01:59;27.80;;;14.83;;
74904;SDS011;63465;50.862;6.220;2024-03-08T01:04:25;27.47;;;16.30;;
74904;SDS011;63465;50.862;6.220;2024-03-08T01:06:53;23.80;;;14.53;;
74904;SDS011;63465;50.862;6.220;2024-03-08T01:09:19;23.10;;;15.60;;
74904;SDS011;63465;50.862;6.220;2024-03-08T01:11:46;24.97;;;15.20;;
74904;SDS011;63465;50.862;6.220;2024-03-08T01:14:12;26.50;;;14.67;;
74904;SDS011;63465;50.862;6.220;2024-03-08T01:16:37;24.60;;;15.20;;
74904;SDS011;63465;50.862;6.220;2024-03-08T01:19:02;26.60;;;15.00;;
74904;SDS011;63465;50.862;6.220;2024-03-08T01:21:28;25.73;;;15.10;;
74904;SDS011;63465;50.862;6.220;2024-03-08T01:23:54;23.37;;;14.50;;
74904;SDS011;63465;50.862;6.220;2024-03-08T01:26:19;26.50;;;15.37;;
74904;SDS011;63465;50.862;6.220;2024-03-08T01:28:44;27.57;;;15.70;;
74904;SDS011;63465;50.862;6.220;2024-03-08T01:31:09;24.60;;;15.97;;
74904;SDS011;63465;50.862;6.220;2024-03-08T01:33:35;25.10;;;15.60;;
74904;SDS011;63465;50.862;6.220;2024-03-08T01:36:00;26.23;;;15.10;;
74904;SDS011;63465;50.862;6.220;2024-03-08T01:38:25;25.13;;;13.93;;
74904;SDS011;63465;50.862;6.220;2024-03-08T01:40:51;26.33;;;15.70;;
74904;SDS011;63465;50.862;6.220;2024-03-08T01:45:53;27.10;;;16.37;;
74904;SDS011;63465;50.862;6.220;2024-03-08T01:48:19;31.83;;;15.30;;
74904;SDS011;63465;50.862;6.220;2024-03-08T01:50:48;22.40;;;14.60;;
74904;SDS011;63465;50.862;6.220;2024-03-08T01:53:14;26.93;;;15.27;;
74904;SDS011;63465;50.862;6.220;2024-03-08T01:55:43;24.70;;;14.60;;
74904;SDS011;63465;50.862;6.220;2024-03-08T01:58:11;28.83;;;16.17;;
74904;SDS011;63465;50.862;6.220;2024-03-08T02:00:40;27.97;;;16.80;;
74904;SDS011;63465;50.862;6.220;2024-03-08T02:03:10;23.77;;;14.87;;
74904;SDS011;63465;50.862;6.220;2024-03-08T02:05:36;25.77;;;14.87;;
74904;SDS011;63465;50.862;6.220;2024-03-08T02:08:03;24.47;;;14.90;;
74904;SDS011;63465;50.862;6.220;2024-03-08T02:10:30;28.53;;;15.77;;
74904;SDS011;63465;50.862;6.220;2024-03-08T02:12:57;24.77;;;15.40;;
74904;SDS011;63465;50.862;6.220;2024-03-08T02:15:23;23.30;;;15.40;;
74904;SDS011;63465;50.862;6.220;2024-03-08T02:17:49;26.67;;;15.60;;
74904;SDS011;63465;50.862;6.220;2024-03-08T02:20:14;30.30;;;17.17;;
74904;SDS011;63465;50.862;6.220;2024-03-08T02:22:39;32.60;;;16.20;;
74904;SDS011;63465;50.862;6.220;2024-03-08T02:25:05;30.93;;;16.57;;
74904;SDS011;63465;50.862;6.220;2024-03-08T02:27:31;25.53;;;14.57;;
74904;SDS011;63465;50.862;6.220;2024-03-08T02:29:57;31.30;;;16.80;;
74904;SDS011;63465;50.862;6.220;2024-03-08T02:32:23;29.63;;;16.70;;
74904;SDS011;63465;50.862;6.220;2024-03-08T02:34:49;27.20;;;15.43;;
74904;SDS011;63465;50.862;6.220;2024-03-08T02:37:15;26.83;;;16.00;;
74904;SDS011;63465;50.862;6.220;2024-03-08T02:39:40;28.13;;;15.30;;
74904;SDS011;63465;50.862;6.220;2024-03-08T02:42:06;30.50;;;16.00;;
74904;SDS011;63465;50.862;6.220;2024-03-08T02:44:32;29.07;;;16.50;;
74904;SDS011;63465;50.862;6.220;2024-03-08T02:46:58;25.90;;;15.23;;
74904;SDS011;63465;50.862;6.220;2024-03-08T02:49:23;26.10;;;15.00;;
74904;SDS011;63465;50.862;6.220;2024-03-08T02:51:49;28.07;;;16.00;;
74904;SDS011;63465;50.862;6.220;2024-03-08T02:54:14;27.00;;;14.97;;
74904;SDS011;63465;50.862;6.220;2024-03-08T02:56:42;26.23;;;15.43;;
74904;SDS011;63465;50.862;6.220;2024-03-08T02:59:07;28.53;;;15.13;;
74904;SDS011;63465;50.862;6.220;2024-03-08T03:01:33;27.47;;;16.60;;
74904;SDS011;63465;50.862;6.220;2024-03-08T03:04:00;32.20;;;17.47;;
74904;SDS011;63465;50.862;6.220;2024-03-08T03:06:25;32.03;;;16.37;;
74904;SDS011;63465;50.862;6.220;2024-03-08T03:08:50;24.13;;;14.67;;
74904;SDS011;63465;50.862;6.220;2024-03-08T03:11:16;28.40;;;16.57;;
74904;SDS011;63465;50.862;6.220;2024-03-08T03:13:42;28.10;;;15.77;;
74904;SDS011;63465;50.862;6.220;2024-03-08T03:16:16;25.40;;;14.43;;
74904;SDS011;63465;50.862;6.220;2024-03-08T03:18:42;27.87;;;14.97;;
74904;SDS011;63465;50.862;6.220;2024-03-08T03:21:08;30.60;;;15.63;;
74904;SDS011;63465;50.862;6.220;2024-03-08T03:23:33;26.00;;;14.97;;
74904;SDS011;63465;50.862;6.220;2024-03-08T03:25:58;25.50;;;15.20;;
74904;SDS011;63465;50.862;6.220;2024-03-08T03:28:24;31.10;;;16.20;;
74904;SDS011;63465;50.862;6.220;2024-03-08T03:30:50;30.00;;;15.90;;
74904;SDS011;63465;50.862;6.220;2024-03-08T03:33:15;30.83;;;17.90;;
74904;SDS011;63465;50.862;6.220;2024-03-08T03:35:42;27.90;;;16.27;;
74904;SDS011;63465;50.862;6.220;2024-03-08T03:38:09;27.80;;;15.87;;
74904;SDS011;63465;50.862;6.220;2024-03-08T03:40:34;31.47;;;17.03;;
74904;SDS011;63465;50.862;6.220;2024-03-08T03:43:00;30.87;;;15.77;;
74904;SDS011;63465;50.862;6.220;2024-03-08T03:45:27;27.63;;;15.33;;
74904;SDS011;63465;50.862;6.220;2024-03-08T03:47:53;27.13;;;14.60;;
74904;SDS011;63465;50.862;6.220;2024-03-08T03:50:18;31.33;;;15.70;;
74904;SDS011;63465;50.862;6.220;2024-03-08T03:52:45;36.20;;;16.07;;
74904;SDS011;63465;50.862;6.220;2024-03-08T03:55:11;24.63;;;15.40;;
74904;SDS011;63465;50.862;6.220;2024-03-08T03:57:37;27.83;;;15.43;;
74904;SDS011;63465;50.862;6.220;2024-03-08T04:00:03;26.67;;;14.50;;
74904;SDS011;63465;50.862;6.220;2024-03-08T04:02:29;30.17;;;15.17;;
74904;SDS011;63465;50.862;6.220;2024-03-08T04:04:55;27.77;;;15.73;;
74904;SDS011;63465;50.862;6.220;2024-03-08T04:07:20;32.60;;;15.83;;
74904;SDS011;63465;50.862;6.220;2024-03-08T04:09:46;25.10;;;14.30;;
74904;SDS011;63465;50.862;6.220;2024-03-08T04:12:11;29.50;;;16.53;;
74904;SDS011;63465;50.862;6.220;2024-03-08T04:14:37;31.97;;;17.77;;
74904;SDS011;63465;50.862;6.220;2024-03-08T04:17:04;29.60;;;16.50;;
74904;SDS011;63465;50.862;6.220;2024-03-08T04:19:31;31.13;;;16.53;;
74904;SDS011;63465;50.862;6.220;2024-03-08T04:21:56;30.33;;;16.50;;
74904;SDS011;63465;50.862;6.220;2024-03-08T04:24:22;36.40;;;16.10;;
74904;SDS011;63465;50.862;6.220;2024-03-08T04:26:47;33.03;;;16.50;;
74904;SDS011;63465;50.862;6.220;2024-03-08T04:29:12;29.37;;;15.70;;
74904;SDS011;63465;50.862;6.220;2024-03-08T04:31:39;30.60;;;15.90;;
74904;SDS011;63465;50.862;6.220;2024-03-08T04:34:05;27.37;;;15.17;;
74904;SDS011;63465;50.862;6.220;2024-03-08T04:36:30;30.40;;;16.50;;
74904;SDS011;63465;50.862;6.220;2024-03-08T04:38:55;26.83;;;15.50;;
74904;SDS011;63465;50.862;6.220;2024-03-08T04:41:21;27.87;;;16.10;;
74904;SDS011;63465;50.862;6.220;2024-03-08T04:43:47;29.17;;;16.47;;
74904;SDS011;63465;50.862;6.220;2024-03-08T04:46:12;28.07;;;16.40;;
74904;SDS011;63465;50.862;6.220;2024-03-08T04:48:38;28.83;;;16.20;;
74904;SDS011;63465;50.862;6.220;2024-03-08T04:51:03;29.93;;;16.93;;
74904;SDS011;63465;50.862;6.220;2024-03-08T04:53:29;29.40;;;16.13;;
74904;SDS011;63465;50.862;6.220;2024-03-08T04:55:54;29.80;;;15.80;;
74904;SDS011;63465;50.862;6.220;2024-03-08T04:58:22;33.30;;;15.90;;
74904;SDS011;63465;50.862;6.220;2024-03-08T05:00:48;29.40;;;16.13;;
74904;SDS011;63465;50.862;6.220;2024-03-08T05:03:13;33.27;;;16.63;;
74904;SDS011;63465;50.862;6.220;2024-03-08T05:05:39;32.10;;;16.77;;
74904;SDS011;63465;50.862;6.220;2024-03-08T05:08:04;32.27;;;16.40;;
74904;SDS011;63465;50.862;6.220;2024-03-08T05:10:30;31.10;;;15.93;;
74904;SDS011;63465;50.862;6.220;2024-03-08T05:12:55;33.37;;;16.70;;
74904;SDS011;63465;50.862;6.220;2024-03-08T05:15:21;31.17;;;16.93;;
74904;SDS011;63465;50.862;6.220;2024-03-08T05:17:46;27.53;;;16.23;;
74904;SDS011;63465;50.862;6.220;2024-03-08T05:20:12;31.07;;;16.30;;
74904;SDS011;63465;50.862;6.220;2024-03-08T05:22:38;28.77;;;16.10;;
74904;SDS011;63465;50.862;6.220;2024-03-08T05:25:05;26.40;;;14.77;;
74904;SDS011;63465;50.862;6.220;2024-03-08T05:27:33;36.07;;;16.43;;
74904;SDS011;63465;50.862;6.220;2024-03-08T05:29:59;31.97;;;15.97;;
74904;SDS011;63465;50.862;6.220;2024-03-08T05:32:24;34.00;;;17.50;;
74904;SDS011;63465;50.862;6.220;2024-03-08T05:34:50;27.70;;;15.63;;
74904;SDS011;63465;50.862;6.220;2024-03-08T05:37:15;33.03;;;14.90;;
74904;SDS011;63465;50.862;6.220;2024-03-08T05:39:40;28.50;;;16.57;;
74904;SDS011;63465;50.862;6.220;2024-03-08T05:42:06;32.03;;;16.37;;
74904;SDS011;63465;50.862;6.220;2024-03-08T05:44:33;31.60;;;16.03;;
74904;SDS011;63465;50.862;6.220;2024-03-08T05:46:59;31.50;;;16.57;;
74904;SDS011;63465;50.862;6.220;2024-03-08T05:49:24;30.60;;;15.10;;
74904;SDS011;63465;50.862;6.220;2024-03-08T05:51:50;26.70;;;15.13;;
74904;SDS011;63465;50.862;6.220;2024-03-08T05:54:16;29.50;;;14.90;;
74904;SDS011;63465;50.862;6.220;2024-03-08T05:56:41;31.20;;;15.57;;
74904;SDS011;63465;50.862;6.220;2024-03-08T05:59:08;27.93;;;16.30;;
74904;SDS011;63465;50.862;6.220;2024-03-08T06:01:34;26.80;;;15.60;;
74904;SDS011;63465;50.862;6.220;2024-03-08T06:04:01;32.30;;;16.57;;
74904;SDS011;63465;50.862;6.220;2024-03-08T06:06:27;30.17;;;15.70;;
74904;SDS011;63465;50.862;6.220;2024-03-08T06:08:52;30.57;;;14.83;;
74904;SDS011;63465;50.862;6.220;2024-03-08T06:11:18;28.53;;;15.97;;
74904;SDS011;63465;50.862;6.220;2024-03-08T06:17:10;29.40;;;16.03;;
74904;SDS011;63465;50.862;6.220;2024-03-08T06:19:36;32.50;;;15.57;;
74904;SDS011;63465;50.862;6.220;2024-03-08T06:22:01;31.87;;;16.00;;
74904;SDS011;63465;50.862;6.220;2024-03-08T06:24:30;29.70;;;16.40;;
74904;SDS011;63465;50.862;6.220;2024-03-08T06:26:56;26.70;;;15.40;;
74904;SDS011;63465;50.862;6.220;2024-03-08T06:29:22;29.53;;;15.17;;
74904;SDS011;63465;50.862;6.220;2024-03-08T06:31:48;26.13;;;15.10;;
74904;SDS011;63465;50.862;6.220;2024-03-08T06:34:14;27.63;;;14.60;;
74904;SDS011;63465;50.862;6.220;2024-03-08T06:36:40;25.73;;;14.83;;
74904;SDS011;63465;50.862;6.220;2024-03-08T06:39:05;39.40;;;17.10;;
74904;SDS011;63465;50.862;6.220;2024-03-08T06:41:35;30.67;;;15.77;;
74904;SDS011;63465;50.862;6.220;2024-03-08T06:44:03;28.67;;;14.63;;
74904;SDS011;63465;50.862;6.220;2024-03-08T06:46:28;26.13;;;15.67;;
74904;SDS011;63465;50.862;6.220;2024-03-08T06:48:54;29.53;;;14.73;;
74904;SDS011;63465;50.862;6.220;2024-03-08T06:51:19;30.40;;;16.20;;
74904;SDS011;63465;50.862;6.220;2024-03-08T06:53:45;34.40;;;16.47;;
74904;SDS011;63465;50.862;6.220;2024-03-08T06:56:10;30.90;;;15.33;;
74904;SDS011;63465;50.862;6.220;2024-03-08T06:58:35;37.80;;;17.93;;
74904;SDS011;63465;50.862;6.220;2024-03-08T07:01:01;35.67;;;18.60;;
74904;SDS011;63465;50.862;6.220;2024-03-08T07:03:29;32.43;;;16.30;;
74904;SDS011;63465;50.862;6.220;2024-03-08T07:05:55;40.03;;;17.93;;
74904;SDS011;63465;50.862;6.220;2024-03-08T07:08:21;42.17;;;18.83;;
74904;SDS011;63465;50.862;6.220;2024-03-08T07:10:48;41.00;;;18.87;;
74904;SDS011;63465;50.862;6.220;2024-03-08T07:13:14;40.03;;;17.50;;
74904;SDS011;63465;50.862;6.220;2024-03-08T07:15:40;36.30;;;16.70;;
74904;SDS011;63465;50.862;6.220;2024-03-08T07:18:05;36.07;;;16.73;;
74904;SDS011;63465;50.862;6.220;2024-03-08T07:20:30;37.20;;;17.43;;
74904;SDS011;63465;50.862;6.220;2024-03-08T07:22:56;35.90;;;17.07;;
74904;SDS011;63465;50.862;6.220;2024-03-08T07:25:21;38.00;;;17.20;;
74904;SDS011;63465;50.862;6.220;2024-03-08T07:27:47;31.53;;;15.87;;
74904;SDS011;63465;50.862;6.220;2024-03-08T07:30:13;33.07;;;15.93;;
74904;SDS011;63465;50.862;6.220;2024-03-08T07:32:59;32.90;;;16.57;;
74904;SDS011;63465;50.862;6.220;2024-03-08T07:35:24;28.37;;;15.97;;
74904;SDS011;63465;50.862;6.220;2024-03-08T07:37:51;29.93;;;16.20;;
74904;SDS011;63465;50.862;6.220;2024-03-08T07:40:19;31.67;;;15.80;;
74904;SDS011;63465;50.862;6.220;2024-03-08T07:42:45;37.90;;;16.00;;
74904;SDS011;63465;50.862;6.220;2024-03-08T07:45:10;34.40;;;16.17;;
74904;SDS011;63465;50.862;6.220;2024-03-08T07:47:37;25.40;;;14.40;;
74904;SDS011;63465;50.862;6.220;2024-03-08T07:50:03;31.73;;;16.00;;
74904;SDS011;63465;50.862;6.220;2024-03-08T07:52:28;27.50;;;15.23;;
74904;SDS011;63465;50.862;6.220;2024-03-08T07:54:54;19.80;;;12.80;;
74904;SDS011;63465;50.862;6.220;2024-03-08T07:57:19;28.20;;;16.10;;
74904;SDS011;63465;50.862;6.220;2024-03-08T07:59:45;29.60;;;15.33;;
74904;SDS011;63465;50.862;6.220;2024-03-08T08:02:10;27.90;;;15.40;;
74904;SDS011;63465;50.862;6.220;2024-03-08T08:04:36;28.93;;;16.57;;
74904;SDS011;63465;50.862;6.220;2024-03-08T08:07:01;22.70;;;14.57;;
74904;SDS011;63465;50.862;6.220;2024-03-08T08:09:26;33.07;;;16.80;;
74904;SDS011;63465;50.862;6.220;2024-03-08T08:11:59;32.23;;;16.57;;
74904;SDS011;63465;50.862;6.220;2024-03-08T08:14:28;30.57;;;16.80;;
74904;SDS011;63465;50.862;6.220;2024-03-08T08:16:54;29.07;;;16.87;;
74904;SDS011;63465;50.862;6.220;2024-03-08T08:19:20;31.50;;;16.43;;
74904;SDS011;63465;50.862;6.220;2024-03-08T08:21:46;29.67;;;16.40;;
74904;SDS011;63465;50.862;6.220;2024-03-08T08:24:11;30.20;;;15.97;;
74904;SDS011;63465;50.862;6.220;2024-03-08T08:26:37;30.37;;;16.20;;
74904;SDS011;63465;50.862;6.220;2024-03-08T08:29:02;31.23;;;16.57;;
74904;SDS011;63465;50.862;6.220;2024-03-08T08:31:27;30.83;;;16.63;;
74904;SDS011;63465;50.862;6.220;2024-03-08T08:33:53;31.57;;;15.33;;
74904;SDS011;63465;50.862;6.220;2024-03-08T08:36:26;33.40;;;18.00;;
74904;SDS011;63465;50.862;6.220;2024-03-08T08:38:54;28.27;;;15.00;;
74904;SDS011;63465;50.862;6.220;2024-03-08T08:41:21;32.07;;;17.00;;
74904;SDS011;63465;50.862;6.220;2024-03-08T08:43:46;33.80;;;17.13;;
74904;SDS011;63465;50.862;6.220;2024-03-08T08:46:12;31.40;;;17.17;;
74904;SDS011;63465;50.862;6.220;2024-03-08T08:48:38;31.30;;;16.30;;
74904;SDS011;63465;50.862;6.220;2024-03-08T08:51:06;29.27;;;16.87;;
74904;SDS011;63465;50.862;6.220;2024-03-08T08:53:37;29.87;;;16.77;;
74904;SDS011;63465;50.862;6.220;2024-03-08T08:56:03;31.80;;;15.87;;
74904;SDS011;63465;50.862;6.220;2024-03-08T08:58:28;30.00;;;16.27;;
74904;SDS011;63465;50.862;6.220;2024-03-08T09:00:54;25.57;;;14.93;;
74904;SDS011;63465;50.862;6.220;2024-03-08T09:03:19;27.97;;;16.17;;
74904;SDS011;63465;50.862;6.220;2024-03-08T09:05:45;29.07;;;14.33;;
74904;SDS011;63465;50.862;6.220;2024-03-08T09:08:11;28.53;;;16.37;;
74904;SDS011;63465;50.862;6.220;2024-03-08T09:10:37;31.23;;;16.40;;
74904;SDS011;63465;50.862;6.220;2024-03-08T09:13:04;29.90;;;17.23;;
74904;SDS011;63465;50.862;6.220;2024-03-08T09:15:29;28.27;;;15.43;;
74904;SDS011;63465;50.862;6.220;2024-03-08T09:17:54;27.03;;;15.60;;
74904;SDS011;63465;50.862;6.220;2024-03-08T09:20:20;28.83;;;16.10;;
74904;SDS011;63465;50.862;6.220;2024-03-08T09:22:45;35.70;;;16.20;;
74904;SDS011;63465;50.862;6.220;2024-03-08T09:25:11;27.43;;;15.33;;
74904;SDS011;63465;50.862;6.220;2024-03-08T09:27:36;28.97;;;15.97;;
74904;SDS011;63465;50.862;6.220;2024-03-08T09:30:02;26.50;;;15.20;;
74904;SDS011;63465;50.862;6.220;2024-03-08T09:32:29;29.97;;;16.20;;
74904;SDS011;63465;50.862;6.220;2024-03-08T09:34:55;29.33;;;16.00;;
74904;SDS011;63465;50.862;6.220;2024-03-08T09:37:21;27.20;;;15.43;;
74904;SDS011;63465;50.862;6.220;2024-03-08T09:39:46;24.87;;;13.83;;
74904;SDS011;63465;50.862;6.220;2024-03-08T09:42:11;23.13;;;14.67;;
74904;SDS011;63465;50.862;6.220;2024-03-08T09:44:43;22.73;;;14.03;;
74904;SDS011;63465;50.862;6.220;2024-03-08T09:47:11;25.17;;;14.10;;
74904;SDS011;63465;50.862;6.220;2024-03-08T09:49:38;26.37;;;14.70;;
74904;SDS011;63465;50.862;6.220;2024-03-08T09:52:05;24.90;;;14.93;;
74904;SDS011;63465;50.862;6.220;2024-03-08T09:54:31;31.30;;;15.13;;
74904;SDS011;63465;50.862;6.220;2024-03-08T09:56:56;25.90;;;16.10;;
74904;SDS011;63465;50.862;6.220;2024-03-08T09:59:22;21.00;;;14.73;;
74904;SDS011;63465;50.862;6.220;2024-03-08T10:01:53;20.53;;;14.77;;
74904;SDS011;63465;50.862;6.220;2024-03-08T10:04:21;19.90;;;14.00;;
74904;SDS011;63465;50.862;6.220;2024-03-08T10:06:47;21.23;;;14.17;;
74904;SDS011;63465;50.862;6.220;2024-03-08T10:09:12;21.87;;;14.93;;
74904;SDS011;63465;50.862;6.220;2024-03-08T10:11:39;21.10;;;13.60;;
74904;SDS011;63465;50.862;6.220;2024-03-08T10:14:05;21.50;;;14.70;;
74904;SDS011;63465;50.862;6.220;2024-03-08T10:16:31;21.23;;;13.50;;
74904;SDS011;63465;50.862;6.220;2024-03-08T10:18:56;24.40;;;13.63;;
74904;SDS011;63465;50.862;6.220;2024-03-08T10:21:22;20.97;;;13.73;;
74904;SDS011;63465;50.862;6.220;2024-03-08T10:23:47;21.53;;;14.53;;
74904;SDS011;63465;50.862;6.220;2024-03-08T10:26:14;23.60;;;13.70;;
74904;SDS011;63465;50.862;6.220;2024-03-08T10:28:44;21.03;;;14.07;;
74904;SDS011;63465;50.862;6.220;2024-03-08T10:31:10;20.90;;;12.83;;
74904;SDS011;63465;50.862;6.220;2024-03-08T10:33:36;18.37;;;13.40;;
74904;SDS011;63465;50.862;6.220;2024-03-08T10:36:05;22.50;;;13.90;;
74904;SDS011;63465;50.862;6.220;2024-03-08T10:38:32;20.80;;;13.30;;
74904;SDS011;63465;50.862;6.220;2024-03-08T10:41:01;18.23;;;13.20;;
74904;SDS011;63465;50.862;6.220;2024-03-08T10:43:28;19.47;;;13.50;;
74904;SDS011;63465;50.862;6.220;2024-03-08T10:46:21;20.40;;;13.73;;
74904;SDS011;63465;50.862;6.220;2024-03-08T10:48:49;19.47;;;12.80;;
74904;SDS011;63465;50.862;6.220;2024-03-08T10:51:17;22.90;;;14.63;;
74904;SDS011;63465;50.862;6.220;2024-03-08T10:53:44;17.73;;;13.10;;
74904;SDS011;63465;50.862;6.220;2024-03-08T10:56:13;20.80;;;14.37;;
74904;SDS011;63465;50.862;6.220;2024-03-08T10:58:39;18.80;;;12.93;;
74904;SDS011;63465;50.862;6.220;2024-03-08T11:01:06;20.10;;;13.87;;
74904;SDS011;63465;50.862;6.220;2024-03-08T11:06:07;23.10;;;13.90;;
74904;SDS011;63465;50.862;6.220;2024-03-08T11:08:35;18.17;;;13.10;;
74904;SDS011;63465;50.862;6.220;2024-03-08T11:11:01;25.10;;;14.10;;
74904;SDS011;63465;50.862;6.220;2024-03-08T11:13:37;20.37;;;13.43;;
74904;SDS011;63465;50.862;6.220;2024-03-08T11:16:09;20.20;;;13.43;;
74904;SDS011;63465;50.862;6.220;2024-03-08T11:18:35;24.17;;;14.23;;
74904;SDS011;63465;50.862;6.220;2024-03-08T11:21:02;23.47;;;14.40;;
74904;SDS011;63465;50.862;6.220;2024-03-08T11:23:32;20.57;;;13.50;;
74904;SDS011;63465;50.862;6.220;2024-03-08T11:25:58;19.60;;;12.60;;
74904;SDS011;63465;50.862;6.220;2024-03-08T11:28:24;21.13;;;13.40;;
74904;SDS011;63465;50.862;6.220;2024-03-08T11:33:24;30.03;;;13.03;;
74904;SDS011;63465;50.862;6.220;2024-03-08T11:35:57;22.63;;;14.57;;
74904;SDS011;63465;50.862;6.220;2024-03-08T11:38:28;18.23;;;12.60;;
74904;SDS011;63465;50.862;6.220;2024-03-08T11:40:56;23.20;;;13.43;;
74904;SDS011;63465;50.862;6.220;2024-03-08T11:43:22;23.57;;;14.30;;
74904;SDS011;63465;50.862;6.220;2024-03-08T11:45:47;17.43;;;12.13;;
74904;SDS011;63465;50.862;6.220;2024-03-08T11:48:13;17.33;;;12.37;;
74904;SDS011;63465;50.862;6.220;2024-03-08T11:50:39;21.30;;;13.17;;
74904;SDS011;63465;50.862;6.220;2024-03-08T11:53:04;19.17;;;13.77;;
74904;SDS011;63465;50.862;6.220;2024-03-08T11:55:33;18.67;;;12.90;;
74904;SDS011;63465;50.862;6.220;2024-03-08T11:58:02;18.97;;;12.60;;
74904;SDS011;63465;50.862;6.220;2024-03-08T12:00:28;20.67;;;14.33;;
74904;SDS011;63465;50.862;6.220;2024-03-08T12:03:06;19.90;;;13.03;;
74904;SDS011;63465;50.862;6.220;2024-03-08T12:05:34;21.93;;;14.00;;
74904;SDS011;63465;50.862;6.220;2024-03-08T12:08:00;18.80;;;13.70;;
74904;SDS011;63465;50.862;6.220;2024-03-08T12:10:27;21.43;;;13.37;;
74904;SDS011;63465;50.862;6.220;2024-03-08T12:12:54;18.50;;;12.43;;
74904;SDS011;63465;50.862;6.220;2024-03-08T12:15:23;18.10;;;11.87;;
74904;SDS011;63465;50.862;6.220;2024-03-08T12:17:50;18.77;;;12.63;;
74904;SDS011;63465;50.862;6.220;2024-03-08T12:20:20;25.87;;;12.83;;
74904;SDS011;63465;50.862;6.220;2024-03-08T12:22:49;17.37;;;12.67;;
74904;SDS011;63465;50.862;6.220;2024-03-08T12:25:18;19.60;;;12.53;;
74904;SDS011;63465;50.862;6.220;2024-03-08T12:27:43;19.90;;;12.90;;
74904;SDS011;63465;50.862;6.220;2024-03-08T12:30:16;17.70;;;12.90;;
74904;SDS011;63465;50.862;6.220;2024-03-08T12:32:46;22.77;;;12.53;;
74904;SDS011;63465;50.862;6.220;2024-03-08T12:35:18;19.63;;;12.30;;
74904;SDS011;63465;50.862;6.220;2024-03-08T12:37:47;23.23;;;13.13;;
74904;SDS011;63465;50.862;6.220;2024-03-08T12:40:14;20.37;;;12.20;;
74904;SDS011;63465;50.862;6.220;2024-03-08T12:42:41;21.80;;;12.53;;
74904;SDS011;63465;50.862;6.220;2024-03-08T12:45:08;17.20;;;11.43;;
74904;SDS011;63465;50.862;6.220;2024-03-08T12:47:35;26.77;;;11.60;;
74904;SDS011;63465;50.862;6.220;2024-03-08T12:50:00;17.63;;;11.53;;
74904;SDS011;63465;50.862;6.220;2024-03-08T12:52:26;19.87;;;12.33;;
74904;SDS011;63465;50.862;6.220;2024-03-08T12:54:51;21.50;;;12.23;;
74904;SDS011;63465;50.862;6.220;2024-03-08T12:57:16;20.83;;;11.90;;
74904;SDS011;63465;50.862;6.220;2024-03-08T12:59:42;19.53;;;12.33;;
74904;SDS011;63465;50.862;6.220;2024-03-08T13:02:07;16.67;;;11.37;;
74904;SDS011;63465;50.862;6.220;2024-03-08T13:04:36;18.83;;;12.80;;
74904;SDS011;63465;50.862;6.220;2024-03-08T13:07:01;19.93;;;12.13;;
74904;SDS011;63465;50.862;6.220;2024-03-08T13:09:27;18.07;;;12.27;;
74904;SDS011;63465;50.862;6.220;2024-03-08T13:11:52;20.10;;;11.90;;
74904;SDS011;63465;50.862;6.220;2024-03-08T13:14:19;19.50;;;11.30;;
74904;SDS011;63465;50.862;6.220;2024-03-08T13:16:45;17.40;;;11.40;;
74904;SDS011;63465;50.862;6.220;2024-03-08T13:19:13;15.90;;;11.50;;
74904;SDS011;63465;50.862;6.220;2024-03-08T13:21:38;18.10;;;10.73;;
74904;SDS011;63465;50.862;6.220;2024-03-08T13:24:04;13.60;;;9.70;;
74904;SDS011;63465;50.862;6.220;2024-03-08T13:26:30;15.33;;;10.23;;
74904;SDS011;63465;50.862;6.220;2024-03-08T13:28:58;16.10;;;10.43;;
74904;SDS011;63465;50.862;6.220;2024-03-08T13:31:23;20.10;;;10.50;;
74904;SDS011;63465;50.862;6.220;2024-03-08T13:33:49;16.50;;;10.07;;
74904;SDS011;63465;50.862;6.220;2024-03-08T13:36:16;22.53;;;11.40;;
74904;SDS011;63465;50.862;6.220;2024-03-08T13:38:45;16.87;;;10.73;;
74904;SDS011;63465;50.862;6.220;2024-03-08T13:41:11;30.30;;;10.57;;
74904;SDS011;63465;50.862;6.220;2024-03-08T13:43:39;17.30;;;9.67;;
74904;SDS011;63465;50.862;6.220;2024-03-08T13:46:07;16.50;;;9.47;;
74904;SDS011;63465;50.862;6.220;2024-03-08T13:48:35;15.17;;;10.00;;
74904;SDS011;63465;50.862;6.220;2024-03-08T13:51:00;14.40;;;9.60;;
74904;SDS011;63465;50.862;6.220;2024-03-08T13:53:26;23.00;;;10.00;;
74904;SDS011;63465;50.862;6.220;2024-03-08T13:55:51;16.10;;;9.40;;
74904;SDS011;63465;50.862;6.220;2024-03-08T13:58:17;15.87;;;9.53;;
74904;SDS011;63465;50.862;6.220;2024-03-08T14:00:42;13.10;;;9.30;;
74904;SDS011;63465;50.862;6.220;2024-03-08T14:03:10;17.17;;;10.23;;
74904;SDS011;63465;50.862;6.220;2024-03-08T14:05:40;12.97;;;9.27;;
74904;SDS011;63465;50.862;6.220;2024-03-08T14:08:07;16.37;;;10.30;;
74904;SDS011;63465;50.862;6.220;2024-03-08T14:10:33;17.13;;;10.10;;
74904;SDS011;63465;50.862;6.220;2024-03-08T14:12:59;15.40;;;10.30;;
74904;SDS011;63465;50.862;6.220;2024-03-08T14:15:25;14.37;;;9.90;;
74904;SDS011;63465;50.862;6.220;2024-03-08T14:17:54;21.67;;;10.33;;
74904;SDS011;63465;50.862;6.220;2024-03-08T14:20:21;14.00;;;9.07;;
74904;SDS011;63465;50.862;6.220;2024-03-08T14:22:50;15.27;;;9.97;;
74904;SDS011;63465;50.862;6.220;2024-03-08T14:25:16;14.80;;;10.83;;
74904;SDS011;63465;50.862;6.220;2024-03-08T14:27:43;16.40;;;11.00;;